createdAt,value
2018-10-11T00:00:28.037Z,5.50
2018-10-11T00:02:56.431Z,3.47
2018-10-11T00:05:24.744Z,3.07
2018-10-11T00:07:53.137Z,2.93
2018-10-11T00:10:21.616Z,3.90
2018-10-11T00:12:49.905Z,3.50
2018-10-11T00:15:18.303Z,3.90
2018-10-11T00:17:46.728Z,2.70
2018-10-11T00:20:15.020Z,3.00
2018-10-11T00:22:43.484Z,2.80
2018-10-11T00:25:11.807Z,3.13
2018-10-11T00:27:40.101Z,3.30
2018-10-11T00:30:08.592Z,3.60
2018-10-11T00:32:37.046Z,3.57
2018-10-11T00:35:05.376Z,3.43
2018-10-11T00:37:33.689Z,3.70
2018-10-11T00:40:02.411Z,3.20
2018-10-11T00:42:30.922Z,3.10
2018-10-11T00:44:59.552Z,3.07
2018-10-11T00:47:27.860Z,3.03
2018-10-11T00:49:56.141Z,2.97
2018-10-11T00:52:24.711Z,2.80
2018-10-11T00:54:53.064Z,2.97
2018-10-11T00:57:21.428Z,3.87
2018-10-11T00:59:49.706Z,2.97
2018-10-11T01:02:18.067Z,3.30
2018-10-11T01:04:46.400Z,3.13
2018-10-11T01:07:14.776Z,3.20
2018-10-11T01:09:43.114Z,3.23
2018-10-11T01:12:11.435Z,2.67
2018-10-11T01:14:39.818Z,3.10
2018-10-11T01:17:08.195Z,2.93
2018-10-11T01:19:36.556Z,2.53
2018-10-11T01:22:04.978Z,2.83
2018-10-11T01:24:33.332Z,2.87
2018-10-11T01:27:01.683Z,2.87
2018-10-11T01:29:30.074Z,3.17
2018-10-11T01:31:58.303Z,3.07
2018-10-11T01:34:26.654Z,2.70
2018-10-11T01:36:55.026Z,2.93
2018-10-11T01:39:23.396Z,2.50
2018-10-11T01:41:51.858Z,3.07
2018-10-11T01:44:20.199Z,2.63
2018-10-11T01:46:48.577Z,2.27
2018-10-11T01:49:16.867Z,3.50
2018-10-11T01:51:45.175Z,3.03
2018-10-11T01:54:13.479Z,2.97
2018-10-11T01:56:41.808Z,3.20
2018-10-11T01:59:10.056Z,2.97
2018-10-11T02:01:38.409Z,3.17
2018-10-11T02:04:07.107Z,2.50
2018-10-11T02:06:35.470Z,2.73
2018-10-11T02:09:04.474Z,2.67
2018-10-11T02:11:32.802Z,2.80
2018-10-11T02:14:01.144Z,2.63
2018-10-11T02:16:29.396Z,3.10
2018-10-11T02:18:57.641Z,2.87
2018-10-11T02:21:25.966Z,2.73
2018-10-11T02:23:54.273Z,2.70
2018-10-11T02:26:22.751Z,2.77
2018-10-11T02:28:51.117Z,2.70
2018-10-11T02:31:19.463Z,2.30
2018-10-11T02:33:47.852Z,3.30
2018-10-11T02:36:16.231Z,2.70
2018-10-11T02:38:44.572Z,2.57
2018-10-11T02:41:13.012Z,2.73
2018-10-11T02:43:41.409Z,3.00
2018-10-11T02:46:09.702Z,2.43
2018-10-11T02:48:37.979Z,2.77
2018-10-11T02:51:06.425Z,2.27
2018-10-11T02:53:34.705Z,2.90
2018-10-11T02:56:03.531Z,2.50
2018-10-11T02:58:43.269Z,3.57
2018-10-11T03:01:11.605Z,2.10
2018-10-11T03:03:39.891Z,3.10
2018-10-11T03:06:08.239Z,2.60
2018-10-11T03:08:37.081Z,2.43
2018-10-11T03:11:05.385Z,2.90
2018-10-11T03:13:33.745Z,2.83
2018-10-11T03:16:02.023Z,2.43
2018-10-11T03:18:30.364Z,2.47
2018-10-11T03:20:58.659Z,2.93
2018-10-11T03:23:27.013Z,3.30
2018-10-11T03:25:55.405Z,3.00
2018-10-11T03:28:23.671Z,2.87
2018-10-11T03:30:52.173Z,2.50
2018-10-11T03:33:20.489Z,2.43
2018-10-11T03:35:48.919Z,2.50
2018-10-11T03:38:17.252Z,2.67
2018-10-11T03:40:45.524Z,2.53
2018-10-11T03:43:13.813Z,2.90
2018-10-11T03:45:42.150Z,1.97
2018-10-11T03:48:10.478Z,2.23
2018-10-11T03:50:38.765Z,2.40
2018-10-11T03:53:07.232Z,2.87
2018-10-11T03:55:35.642Z,2.60
2018-10-11T03:58:04.149Z,3.10
2018-10-11T04:00:32.462Z,2.67
2018-10-11T04:03:00.850Z,1.77
2018-10-11T04:05:29.159Z,2.90
2018-10-11T04:07:57.702Z,1.87
2018-10-11T04:10:26.079Z,2.63
2018-10-11T04:12:54.406Z,2.70
2018-10-11T04:15:22.974Z,2.60
2018-10-11T04:17:51.225Z,2.40
2018-10-11T04:20:19.512Z,2.13
2018-10-11T04:22:47.901Z,2.13
2018-10-11T04:25:16.264Z,2.70
2018-10-11T04:27:44.552Z,2.53
2018-10-11T04:30:12.963Z,2.40
2018-10-11T04:32:41.327Z,1.90
2018-10-11T04:35:09.620Z,2.37
2018-10-11T04:37:37.943Z,2.67
2018-10-11T04:40:06.226Z,2.90
2018-10-11T04:42:34.537Z,2.10
2018-10-11T04:45:02.906Z,2.60
2018-10-11T04:47:31.235Z,2.03
2018-10-11T04:49:59.571Z,2.63
2018-10-11T04:52:28.051Z,2.20
2018-10-11T04:54:56.407Z,2.50
2018-10-11T04:57:24.706Z,1.97
2018-10-11T04:59:53.120Z,1.90
2018-10-11T05:02:21.403Z,2.80
2018-10-11T05:04:49.803Z,2.00
2018-10-11T05:07:18.273Z,2.40
2018-10-11T05:09:46.688Z,2.60
2018-10-11T05:12:14.993Z,1.63
2018-10-11T05:14:43.727Z,2.27
2018-10-11T05:17:12.055Z,2.10
2018-10-11T05:19:40.594Z,2.80
2018-10-11T05:22:08.948Z,2.03
2018-10-11T05:24:37.435Z,2.73
2018-10-11T05:27:06.235Z,2.60
2018-10-11T05:29:34.543Z,2.80
2018-10-11T05:32:02.909Z,2.20
2018-10-11T05:34:31.261Z,2.00
2018-10-11T05:36:59.690Z,2.50
2018-10-11T05:39:27.989Z,2.27
2018-10-11T05:41:56.298Z,2.43
2018-10-11T05:44:24.847Z,2.37
2018-10-11T05:46:53.149Z,4.50
2018-10-11T05:49:21.623Z,3.93
2018-10-11T05:51:49.920Z,2.20
2018-10-11T05:54:18.716Z,2.70
2018-10-11T05:56:47.378Z,2.93
2018-10-11T05:59:15.659Z,2.97
2018-10-11T06:01:44.059Z,4.23
2018-10-11T06:04:12.812Z,4.20
2018-10-11T06:06:41.323Z,4.30
2018-10-11T06:09:10.843Z,4.57
2018-10-11T06:11:39.365Z,5.20
2018-10-11T06:14:07.686Z,5.27
2018-10-11T06:16:36.146Z,5.77
2018-10-11T06:19:04.481Z,5.97
2018-10-11T06:21:32.803Z,5.60
2018-10-11T06:24:01.110Z,6.50
2018-10-11T06:26:29.470Z,6.10
2018-10-11T06:28:57.967Z,6.70
2018-10-11T06:31:26.438Z,8.20
2018-10-11T06:33:54.819Z,7.80
2018-10-11T06:36:23.191Z,7.53
2018-10-11T06:38:51.761Z,7.47
2018-10-11T06:41:20.282Z,7.90
2018-10-11T06:43:48.591Z,6.97
2018-10-11T06:46:16.858Z,12.43
2018-10-11T06:48:45.203Z,7.93
2018-10-11T06:51:13.560Z,6.80
2018-10-11T06:53:41.864Z,5.40
2018-10-11T06:56:10.382Z,6.40
2018-10-11T06:58:38.788Z,6.13
2018-10-11T07:01:07.115Z,5.80
2018-10-11T07:03:35.482Z,6.43
2018-10-11T07:06:03.904Z,6.70
2018-10-11T07:08:32.273Z,7.43
2018-10-11T07:11:00.606Z,7.33
2018-10-11T07:13:28.902Z,7.97
2018-10-11T07:15:57.224Z,7.07
2018-10-11T07:18:25.567Z,7.77
2018-10-11T07:20:53.989Z,6.67
2018-10-11T07:23:22.327Z,5.90
2018-10-11T07:25:50.660Z,6.63
2018-10-11T07:28:18.942Z,5.83
2018-10-11T07:30:47.409Z,6.60
2018-10-11T07:33:15.769Z,5.73
2018-10-11T07:35:44.085Z,6.73
2018-10-11T07:38:12.436Z,6.33
2018-10-11T07:40:40.968Z,6.33
2018-10-11T07:43:09.081Z,5.33
2018-10-11T07:45:37.384Z,7.07
2018-10-11T07:48:05.930Z,5.57
2018-10-11T07:50:43.445Z,5.67
2018-10-11T07:53:11.747Z,5.40
2018-10-11T07:55:40.088Z,5.67
2018-10-11T07:58:08.548Z,6.50
2018-10-11T08:00:36.886Z,5.50
2018-10-11T08:03:05.233Z,5.40
2018-10-11T08:05:33.513Z,6.00
2018-10-11T08:08:01.897Z,4.57
2018-10-11T08:10:30.373Z,5.93
2018-10-11T08:12:58.623Z,5.03
2018-10-11T08:15:26.949Z,5.40
2018-10-11T08:17:55.804Z,5.87
2018-10-11T08:20:23.748Z,4.87
2018-10-11T08:22:52.163Z,5.80
2018-10-11T08:25:20.654Z,5.00
2018-10-11T08:27:48.777Z,5.30
2018-10-11T08:30:17.103Z,4.80
2018-10-11T08:32:45.492Z,5.13
2018-10-11T08:35:13.815Z,5.03
2018-10-11T08:37:42.161Z,4.60
2018-10-11T08:40:10.382Z,3.67
2018-10-11T08:42:38.738Z,4.17
2018-10-11T08:45:07.166Z,4.97
2018-10-11T08:47:35.411Z,4.43
2018-10-11T08:50:03.806Z,4.23
2018-10-11T08:52:32.137Z,5.20
2018-10-11T08:55:00.505Z,4.40
2018-10-11T08:57:28.941Z,4.20
2018-10-11T08:59:57.290Z,4.67
2018-10-11T09:02:25.701Z,3.80
2018-10-11T09:04:54.056Z,3.40
2018-10-11T09:07:22.515Z,3.70
2018-10-11T09:09:53.635Z,3.83
2018-10-11T09:12:19.105Z,3.30
2018-10-11T09:14:47.662Z,3.20
2018-10-11T09:17:15.985Z,3.23
2018-10-11T09:19:44.289Z,4.27
2018-10-11T09:22:12.677Z,3.37
2018-10-11T09:24:40.959Z,4.40
2018-10-11T09:27:09.646Z,3.40
2018-10-11T09:29:37.873Z,3.00
2018-10-11T09:32:06.141Z,3.47
2018-10-11T09:34:34.446Z,3.03
2018-10-11T09:37:02.803Z,3.70
2018-10-11T09:39:31.246Z,3.07
2018-10-11T09:41:59.608Z,3.20
2018-10-11T09:44:27.961Z,2.43
2018-10-11T09:46:56.261Z,2.77
2018-10-11T09:49:24.575Z,3.70
2018-10-11T09:51:52.819Z,3.17
2018-10-11T09:54:21.191Z,3.60
2018-10-11T09:57:38.301Z,2.87
2018-10-11T10:00:14.172Z,3.57
2018-10-11T10:02:42.603Z,3.30
2018-10-11T10:05:10.917Z,2.90
2018-10-11T10:07:39.478Z,3.60
2018-10-11T10:10:08.206Z,3.50
2018-10-11T10:12:36.509Z,3.33
2018-10-11T10:15:05.085Z,3.67
2018-10-11T10:17:33.608Z,3.37
2018-10-11T10:20:02.034Z,3.13
2018-10-11T10:22:30.425Z,5.90
2018-10-11T10:24:58.794Z,3.07
2018-10-11T10:27:27.167Z,2.83
2018-10-11T10:29:55.487Z,2.50
2018-10-11T10:32:23.757Z,3.23
2018-10-11T10:34:52.265Z,3.10
2018-10-11T10:37:20.727Z,2.70
2018-10-11T10:39:49.126Z,2.90
2018-10-11T10:42:17.383Z,3.00
2018-10-11T10:44:45.673Z,2.40
2018-10-11T10:47:14.025Z,2.90
2018-10-11T10:49:42.346Z,3.30
2018-10-11T10:52:10.681Z,2.90
2018-10-11T10:54:38.969Z,2.23
2018-10-11T10:57:07.321Z,2.83
2018-10-11T10:59:35.672Z,2.73
2018-10-11T11:02:04.069Z,2.63
2018-10-11T11:04:32.457Z,3.10
2018-10-11T11:07:00.793Z,2.30
2018-10-11T11:09:29.165Z,2.40
2018-10-11T11:11:57.456Z,2.77
2018-10-11T11:14:26.012Z,2.67
2018-10-11T11:16:54.361Z,2.10
2018-10-11T11:19:22.712Z,2.10
2018-10-11T11:21:51.046Z,2.37
2018-10-11T11:24:19.569Z,2.33
2018-10-11T11:26:48.030Z,2.43
2018-10-11T11:29:16.431Z,2.47
2018-10-11T11:31:44.786Z,2.70
2018-10-11T11:34:13.116Z,2.53
2018-10-11T11:36:41.485Z,2.20
2018-10-11T11:39:10.224Z,2.17
2018-10-11T11:41:38.683Z,3.10
2018-10-11T11:44:07.154Z,2.23
2018-10-11T11:46:35.754Z,3.33
2018-10-11T11:49:04.118Z,2.53
2018-10-11T11:51:32.476Z,2.77
2018-10-11T11:54:00.806Z,3.40
2018-10-11T11:56:29.153Z,3.52
2018-10-11T11:58:57.598Z,3.10
2018-10-11T12:01:25.978Z,3.00
2018-10-11T12:03:54.304Z,2.30
2018-10-11T12:06:22.616Z,2.73
2018-10-11T12:08:50.907Z,2.60
2018-10-11T12:11:19.274Z,2.73
2018-10-11T12:13:47.589Z,2.70
2018-10-11T12:16:15.918Z,2.23
2018-10-11T12:18:44.218Z,2.77
2018-10-11T12:21:12.514Z,2.67
2018-10-11T12:23:41.160Z,1.93
2018-10-11T12:26:09.482Z,2.20
2018-10-11T12:28:37.961Z,2.57
2018-10-11T12:31:07.522Z,2.47
2018-10-11T12:33:35.824Z,2.37
2018-10-11T12:36:04.630Z,2.30
2018-10-11T12:38:33.047Z,2.13
2018-10-11T12:41:01.723Z,3.40
2018-10-11T12:43:29.671Z,2.60
2018-10-11T12:45:57.969Z,2.77
2018-10-11T12:48:26.290Z,2.17
2018-10-11T12:50:54.615Z,2.20
2018-10-11T12:53:22.976Z,2.53
2018-10-11T12:55:51.282Z,1.70
2018-10-11T12:58:19.581Z,2.63
2018-10-11T13:00:47.999Z,1.90
2018-10-11T13:03:16.444Z,2.70
2018-10-11T13:05:44.678Z,2.20
2018-10-11T13:08:13.059Z,2.17
2018-10-11T13:10:41.612Z,2.50
2018-10-11T13:13:09.744Z,2.10
2018-10-11T13:15:38.028Z,12.50
2018-10-11T13:18:06.348Z,7.90
2018-10-11T13:20:34.814Z,4.23
2018-10-11T13:23:03.220Z,2.73
2018-10-11T13:25:31.812Z,2.63
2018-10-11T13:28:00.188Z,2.47
2018-10-11T13:30:36.354Z,3.10
2018-10-11T13:33:08.884Z,3.10
2018-10-11T13:35:40.890Z,2.10
2018-10-11T13:38:09.404Z,2.43
2018-10-11T13:40:37.731Z,2.00
2018-10-11T13:43:06.297Z,2.57
2018-10-11T13:45:34.636Z,2.80
2018-10-11T13:48:02.989Z,2.00
2018-10-11T13:50:31.284Z,2.10
2018-10-11T13:52:59.718Z,2.20
2018-10-11T13:55:28.121Z,1.70
2018-10-11T13:57:56.561Z,2.40
2018-10-11T14:00:24.872Z,1.90
2018-10-11T14:02:53.241Z,1.97
2018-10-11T14:05:21.640Z,1.73
2018-10-11T14:07:50.118Z,2.30
2018-10-11T14:10:18.612Z,2.83
2018-10-11T14:12:47.148Z,1.97
2018-10-11T14:15:15.479Z,1.73
2018-10-11T14:17:43.927Z,1.87
2018-10-11T14:20:12.871Z,3.20
2018-10-11T14:22:41.250Z,2.10
2018-10-11T14:25:09.687Z,2.53
2018-10-11T14:27:38.075Z,2.60
2018-10-11T14:30:06.638Z,1.77
2018-10-11T14:32:35.004Z,2.10
2018-10-11T14:35:03.393Z,1.80
2018-10-11T14:37:31.740Z,1.57
2018-10-11T14:40:00.197Z,2.03
2018-10-11T14:42:28.591Z,1.17
2018-10-11T14:44:56.994Z,1.90
2018-10-11T14:47:25.406Z,1.53
2018-10-11T14:49:53.779Z,1.70
2018-10-11T14:52:22.204Z,2.20
2018-10-11T14:54:50.618Z,1.80
2018-10-11T14:57:19.109Z,1.27
2018-10-11T14:59:47.338Z,2.00
2018-10-11T15:02:15.670Z,1.90
2018-10-11T15:04:44.098Z,2.00
2018-10-11T15:07:12.491Z,1.90
2018-10-11T15:09:40.905Z,1.73
2018-10-11T15:12:09.245Z,1.10
2018-10-11T15:14:37.508Z,1.67
2018-10-11T15:17:06.034Z,1.33
2018-10-11T15:19:34.376Z,1.73
2018-10-11T15:22:02.949Z,2.00
2018-10-11T15:24:31.374Z,1.60
2018-10-11T15:26:59.738Z,1.43
2018-10-11T15:29:28.497Z,1.63
2018-10-11T15:31:56.770Z,1.53
2018-10-11T15:34:25.151Z,2.50
2018-10-11T15:36:53.618Z,2.30
2018-10-11T15:39:21.933Z,4.33
2018-10-11T15:41:50.353Z,2.37
2018-10-11T15:44:18.832Z,2.30
2018-10-11T15:46:47.296Z,32.50
2018-10-11T15:49:15.583Z,2.50
2018-10-11T15:51:43.908Z,2.10
2018-10-11T15:54:12.277Z,2.30
2018-10-11T15:56:40.686Z,2.33
2018-10-11T15:59:09.033Z,3.27
2018-10-11T16:01:37.420Z,3.97
2018-10-11T16:04:05.761Z,13.43
2018-10-11T16:06:34.290Z,14.40
2018-10-11T16:09:02.660Z,11.03
2018-10-11T16:11:30.894Z,40.93
2018-10-11T16:13:59.273Z,13.30
2018-10-11T16:16:27.766Z,9.13
2018-10-11T16:18:57.054Z,9.20
2018-10-11T16:21:25.426Z,8.90
2018-10-11T16:23:53.778Z,10.30
2018-10-11T16:26:22.096Z,8.87
2018-10-11T16:28:50.585Z,8.53
2018-10-11T16:31:19.018Z,8.20
2018-10-11T16:33:47.691Z,8.30
2018-10-11T16:36:16.005Z,7.40
2018-10-11T16:38:44.462Z,7.77
2018-10-11T16:41:13.528Z,6.17
2018-10-11T16:43:41.807Z,8.13
2018-10-11T16:46:10.090Z,8.50
2018-10-11T16:48:38.482Z,8.77
2018-10-11T16:51:06.917Z,7.90
2018-10-11T16:53:35.201Z,6.83
2018-10-11T16:56:03.583Z,7.50
2018-10-11T16:58:31.995Z,7.73
2018-10-11T17:01:00.420Z,7.07
2018-10-11T17:03:28.874Z,7.20
2018-10-11T17:05:57.312Z,7.67
2018-10-11T17:08:25.705Z,9.40
2018-10-11T17:10:54.090Z,5.77
2018-10-11T17:13:22.470Z,4.73
2018-10-11T17:15:50.804Z,4.90
2018-10-11T17:18:19.310Z,5.47
2018-10-11T17:20:47.715Z,4.97
2018-10-11T17:23:16.050Z,6.73
2018-10-11T17:25:44.458Z,6.03
2018-10-11T17:28:12.782Z,5.40
2018-10-11T17:30:41.189Z,5.60
2018-10-11T17:33:09.561Z,5.90
2018-10-11T17:35:37.863Z,4.83
2018-10-11T17:38:06.605Z,6.00
2018-10-11T17:40:34.985Z,5.83
2018-10-11T17:43:03.385Z,5.63
2018-10-11T17:45:31.677Z,4.60
2018-10-11T17:48:01.682Z,4.90
2018-10-11T17:50:30.167Z,5.97
2018-10-11T17:52:58.529Z,4.87
2018-10-11T17:55:26.877Z,5.17
2018-10-11T17:57:55.585Z,4.40
2018-10-11T18:00:24.030Z,4.60
2018-10-11T18:02:52.478Z,4.47
2018-10-11T18:05:20.856Z,4.30
2018-10-11T18:07:49.291Z,4.63
2018-10-11T18:10:17.753Z,4.17
2018-10-11T18:12:46.222Z,5.20
2018-10-11T18:15:14.590Z,5.97
2018-10-11T18:17:42.925Z,5.60
2018-10-11T18:20:11.225Z,5.70
2018-10-11T18:22:39.577Z,6.70
2018-10-11T18:25:07.945Z,5.60
2018-10-11T18:27:36.351Z,6.80
2018-10-11T18:30:04.789Z,6.00
2018-10-11T18:32:33.200Z,6.07
2018-10-11T18:35:01.455Z,5.60
2018-10-11T18:37:29.814Z,5.50
2018-10-11T18:39:58.198Z,5.60
2018-10-11T18:42:26.577Z,5.60
2018-10-11T18:44:55.037Z,5.47
2018-10-11T18:47:23.365Z,5.50
2018-10-11T18:49:52.794Z,6.07
2018-10-11T18:52:21.143Z,5.17
2018-10-11T18:54:49.963Z,6.20
2018-10-11T18:57:18.506Z,6.23
2018-10-11T18:59:46.816Z,5.73
2018-10-11T19:02:15.414Z,5.63
2018-10-11T19:04:44.264Z,5.43
2018-10-11T19:07:12.634Z,6.40
2018-10-11T19:09:41.009Z,5.60
2018-10-11T19:12:09.394Z,5.40
2018-10-11T19:14:37.799Z,6.50
2018-10-11T19:17:06.256Z,5.60
2018-10-11T19:19:35.232Z,5.47
2018-10-11T19:22:03.675Z,5.70
2018-10-11T19:24:32.009Z,6.37
2018-10-11T19:27:00.462Z,6.20
2018-10-11T19:29:29.039Z,6.70
2018-10-11T19:31:57.414Z,6.60
2018-10-11T19:34:25.777Z,6.30
2018-10-11T19:36:54.114Z,6.77
2018-10-11T19:39:22.643Z,6.90
2018-10-11T19:41:50.976Z,5.77
2018-10-11T19:44:19.311Z,6.93
2018-10-11T19:46:47.706Z,5.40
2018-10-11T19:49:16.032Z,6.23
2018-10-11T19:51:44.679Z,6.43
2018-10-11T19:54:13.336Z,7.30
2018-10-11T19:56:41.686Z,6.47
2018-10-11T19:59:10.044Z,6.00
2018-10-11T20:01:38.388Z,5.73
2018-10-11T20:04:06.882Z,5.50
2018-10-11T20:06:35.223Z,6.67
2018-10-11T20:09:04.276Z,6.90
2018-10-11T20:11:32.630Z,6.20
2018-10-11T20:14:00.990Z,6.27
2018-10-11T20:16:29.374Z,6.70
2018-10-11T20:18:57.693Z,6.90
2018-10-11T20:21:26.040Z,6.57
2018-10-11T20:23:54.480Z,6.70
2018-10-11T20:26:22.756Z,5.10
2018-10-11T20:28:51.079Z,6.40
2018-10-11T20:31:19.429Z,7.10
2018-10-11T20:33:47.704Z,6.73
2018-10-11T20:36:16.063Z,7.17
2018-10-11T20:38:44.458Z,6.83
2018-10-11T20:41:12.799Z,6.40
2018-10-11T20:43:41.182Z,5.97
2018-10-11T20:46:09.471Z,7.83
2018-10-11T20:48:37.830Z,8.10
2018-10-11T20:51:06.660Z,7.77
2018-10-11T20:53:35.012Z,8.03
2018-10-11T20:56:03.372Z,7.30
2018-10-11T20:58:31.648Z,7.37
2018-10-11T21:00:59.986Z,6.13
2018-10-11T21:03:28.306Z,7.67
2018-10-11T21:05:56.711Z,8.40
2018-10-11T21:08:25.034Z,8.10
2018-10-11T21:10:53.344Z,7.27
2018-10-11T21:13:21.705Z,8.30
2018-10-11T21:15:50.090Z,7.97
2018-10-11T21:18:18.660Z,8.33
2018-10-11T21:20:46.983Z,7.70
2018-10-11T21:23:15.289Z,9.23
2018-10-11T21:25:43.563Z,7.90
2018-10-11T21:28:11.878Z,7.20
2018-10-11T21:30:40.197Z,8.30
2018-10-11T21:33:08.574Z,7.40
2018-10-11T21:35:36.922Z,8.20
2018-10-11T21:38:05.866Z,7.50
2018-10-11T21:40:34.194Z,7.70
2018-10-11T21:43:02.526Z,7.80
2018-10-11T21:45:30.832Z,8.37
2018-10-11T21:47:59.156Z,8.17
2018-10-11T21:50:27.491Z,7.17
2018-10-11T21:52:55.887Z,7.33
2018-10-11T21:55:24.176Z,6.90
2018-10-11T21:57:52.481Z,8.10
2018-10-11T22:00:25.034Z,7.90
2018-10-11T22:02:53.363Z,7.27
2018-10-11T22:05:21.864Z,7.83
2018-10-11T22:07:50.204Z,8.67
2018-10-11T22:10:18.516Z,6.77
2018-10-11T22:12:46.857Z,8.37
2018-10-11T22:15:15.310Z,7.30
2018-10-11T22:17:43.680Z,7.30
2018-10-11T22:20:12.032Z,8.10
2018-10-11T22:22:40.361Z,9.23
2018-10-11T22:25:08.734Z,9.07
2018-10-11T22:27:37.094Z,7.47
2018-10-11T22:30:05.450Z,6.63
2018-10-11T22:32:33.846Z,7.67
2018-10-11T22:35:02.179Z,7.43
2018-10-11T22:37:30.564Z,7.13
2018-10-11T22:39:58.904Z,7.60
2018-10-11T22:42:27.298Z,6.90
2018-10-11T22:44:55.637Z,6.27
2018-10-11T22:47:24.034Z,7.23
2018-10-11T22:49:52.396Z,6.67
2018-10-11T22:52:20.699Z,6.80
2018-10-11T22:54:49.020Z,7.07
2018-10-11T22:57:17.463Z,7.07
2018-10-11T22:59:45.768Z,6.90
2018-10-11T23:02:14.273Z,7.90
2018-10-11T23:04:43.310Z,7.63
2018-10-11T23:07:11.670Z,6.60
2018-10-11T23:09:40.036Z,6.40
2018-10-11T23:12:08.372Z,6.73
2018-10-11T23:14:36.841Z,6.97
2018-10-11T23:17:05.156Z,6.60
2018-10-11T23:19:33.594Z,6.40
2018-10-11T23:22:01.920Z,6.63
2018-10-11T23:24:30.321Z,7.40
2018-10-11T23:26:58.762Z,5.97
2018-10-11T23:29:27.069Z,6.57
2018-10-11T23:31:55.368Z,6.13
2018-10-11T23:34:24.016Z,6.73
2018-10-11T23:36:52.421Z,7.00
2018-10-11T23:39:20.796Z,6.70
2018-10-11T23:41:49.218Z,7.03
2018-10-11T23:44:17.644Z,5.80
2018-10-11T23:46:46.054Z,6.20
2018-10-11T23:49:14.403Z,7.10
2018-10-11T23:51:42.686Z,6.97
2018-10-11T23:54:11.023Z,6.17
2018-10-11T23:56:39.300Z,6.30
2018-10-11T23:59:07.724Z,8.23
